createdAt,value
2022-10-22T00:01:41.231Z,100069.94
2022-10-22T00:04:14.621Z,100078.39
2022-10-22T00:06:48.059Z,100081.34
2022-10-22T00:09:21.505Z,100079.34
2022-10-22T00:11:55.245Z,100077.85
2022-10-22T00:14:28.615Z,100074.89
2022-10-22T00:17:02.375Z,100068.14
2022-10-22T00:19:35.739Z,100058.95
2022-10-22T00:22:10.438Z,100062.15
2022-10-22T00:24:44.354Z,100063.45
2022-10-22T00:27:17.909Z,100067.23
2022-10-22T00:29:51.413Z,100066.15
2022-10-22T00:32:25.362Z,100063.17
2022-10-22T00:34:58.622Z,100057.72
2022-10-22T00:37:32.217Z,100047.85
2022-10-22T00:40:05.582Z,100043.09
2022-10-22T00:42:39.193Z,100042.31
2022-10-22T00:45:20.365Z,100033.98
2022-10-22T00:48:00.760Z,100031.23
2022-10-22T00:50:39.031Z,100033.83
2022-10-22T00:53:15.718Z,100032.63
2022-10-22T00:55:53.034Z,100030.11
2022-10-22T00:58:29.343Z,100031.61
2022-10-22T01:01:03.669Z,100031.32
2022-10-22T01:03:37.333Z,100027.73
2022-10-22T01:06:14.170Z,100020.10
2022-10-22T01:09:03.784Z,100018.46
2022-10-22T01:11:45.557Z,100018.17
2022-10-22T01:14:27.086Z,100022.05
2022-10-22T01:17:09.760Z,100020.90
2022-10-22T01:20:06.631Z,100016.09
2022-10-22T01:22:47.075Z,100012.08
2022-10-22T01:25:29.977Z,100009.70
2022-10-22T01:28:15.741Z,100004.88
2022-10-22T01:30:52.084Z,100007.23
2022-10-22T01:33:29.133Z,100001.71
2022-10-22T01:36:03.745Z,100000.22
2022-10-22T01:38:37.809Z,99998.36
2022-10-22T01:41:11.824Z,99998.15
2022-10-22T01:43:45.239Z,99998.87
2022-10-22T01:46:28.533Z,100000.63
2022-10-22T01:49:16.649Z,100005.25
2022-10-22T01:52:04.831Z,100011.17
2022-10-22T01:54:48.297Z,100008.24
2022-10-22T01:57:30.387Z,100005.91
2022-10-22T02:00:08.303Z,100004.00
2022-10-22T02:02:49.664Z,99999.57
2022-10-22T02:05:27.101Z,99997.75
2022-10-22T02:08:04.804Z,99992.38
2022-10-22T02:10:41.567Z,99991.19
2022-10-22T02:13:19.124Z,99984.64
2022-10-22T02:15:54.657Z,99986.05
2022-10-22T02:18:31.418Z,99991.70
2022-10-22T02:21:04.901Z,99990.70
2022-10-22T02:23:39.020Z,99984.02
2022-10-22T02:26:18.646Z,99982.77
2022-10-22T02:28:59.080Z,99983.02
2022-10-22T02:31:37.685Z,99985.90
2022-10-22T02:34:15.639Z,99988.38
2022-10-22T02:36:50.974Z,99985.02
2022-10-22T02:39:25.102Z,99990.03
2022-10-22T02:41:58.476Z,99996.18
2022-10-22T02:44:32.039Z,99997.80
2022-10-22T02:47:05.292Z,99994.95
2022-10-22T02:49:38.204Z,99995.23
2022-10-22T02:52:12.127Z,99988.41
2022-10-22T02:54:45.618Z,99988.81
2022-10-22T02:57:18.933Z,99995.67
2022-10-22T02:59:52.329Z,99997.74
2022-10-22T03:02:25.821Z,99996.89
2022-10-22T03:04:59.317Z,99995.64
2022-10-22T03:07:32.767Z,99992.25
2022-10-22T03:10:06.083Z,99991.60
2022-10-22T03:12:39.406Z,99989.59
2022-10-22T03:15:13.837Z,99981.95
2022-10-22T03:17:47.637Z,99977.34
2022-10-22T03:20:21.213Z,99978.27
2022-10-22T03:22:54.822Z,99970.77
2022-10-22T03:25:31.412Z,99972.52
2022-10-22T03:28:07.484Z,99973.16
2022-10-22T03:30:40.596Z,99972.23
2022-10-22T03:33:13.761Z,99971.09
2022-10-22T03:35:49.254Z,99976.85
2022-10-22T03:38:22.768Z,99980.44
2022-10-22T03:40:56.111Z,99982.27
2022-10-22T03:43:29.421Z,99992.73
2022-10-22T03:46:02.533Z,100000.14
2022-10-22T03:48:36.286Z,100001.62
2022-10-22T03:51:10.316Z,100002.91
2022-10-22T03:53:44.197Z,99998.73
2022-10-22T03:56:17.559Z,99983.34
2022-10-22T03:58:51.002Z,99977.25
2022-10-22T04:01:24.332Z,99975.14
2022-10-22T04:03:57.963Z,99980.53
2022-10-22T04:06:33.202Z,99984.70
2022-10-22T04:09:06.668Z,99990.61
2022-10-22T04:11:40.363Z,99995.30
2022-10-22T04:14:14.356Z,99982.34
2022-10-22T04:16:47.959Z,99980.52
2022-10-22T04:19:21.169Z,99982.27
2022-10-22T04:21:54.935Z,99984.02
2022-10-22T04:24:28.517Z,99971.65
2022-10-22T04:27:01.534Z,99952.42
2022-10-22T04:29:35.163Z,99944.86
2022-10-22T04:32:08.842Z,99944.19
2022-10-22T04:34:41.941Z,99949.91
2022-10-22T04:37:15.388Z,99944.88
2022-10-22T04:39:48.937Z,99936.20
2022-10-22T04:42:22.257Z,99932.80
2022-10-22T04:44:56.423Z,99930.10
2022-10-22T04:47:30.170Z,99929.97
2022-10-22T04:50:03.401Z,99938.66
2022-10-22T04:52:36.772Z,99940.89
2022-10-22T04:55:11.157Z,99944.63
2022-10-22T04:57:44.572Z,99940.81
2022-10-22T05:00:18.832Z,99945.36
2022-10-22T05:02:54.125Z,99945.98
2022-10-22T05:05:27.403Z,99943.06
2022-10-22T05:08:01.427Z,99942.85
2022-10-22T05:10:34.598Z,99941.43
2022-10-22T05:13:07.481Z,99943.91
2022-10-22T05:15:40.748Z,99948.27
2022-10-22T05:18:17.822Z,99956.49
2022-10-22T05:20:53.566Z,99957.03
2022-10-22T05:23:26.480Z,99955.27
2022-10-22T05:26:03.168Z,99962.08
2022-10-22T05:28:37.108Z,99960.52
2022-10-22T05:31:13.267Z,99960.14
2022-10-22T05:33:48.250Z,99960.67
2022-10-22T05:36:23.782Z,99961.47
2022-10-22T05:38:58.996Z,99955.61
2022-10-22T05:41:34.474Z,99950.78
2022-10-22T05:44:08.773Z,99951.05
2022-10-22T05:46:43.608Z,99947.75
2022-10-22T05:49:17.984Z,99946.84
2022-10-22T05:51:50.959Z,99951.50
2022-10-22T05:54:24.483Z,99951.66
2022-10-22T05:56:57.665Z,99948.98
2022-10-22T05:59:30.914Z,99940.95
2022-10-22T06:02:04.396Z,99931.17
2022-10-22T06:04:38.084Z,99937.20
2022-10-22T06:07:16.762Z,99949.14
2022-10-22T06:09:50.703Z,99957.60
2022-10-22T06:12:24.170Z,99957.42
2022-10-22T06:14:57.813Z,99959.54
2022-10-22T06:17:31.328Z,99961.25
2022-10-22T06:22:39.806Z,99968.20
2022-10-22T06:25:14.595Z,99970.41
2022-10-22T06:27:53.560Z,99975.29
2022-10-22T06:30:27.132Z,99975.47
2022-10-22T06:33:00.569Z,99966.77
2022-10-22T06:35:34.016Z,99965.58
2022-10-22T06:38:07.741Z,99987.80
2022-10-22T06:40:43.781Z,99988.17
2022-10-22T06:43:18.357Z,99981.46
2022-10-22T06:45:51.545Z,99979.36
2022-10-22T06:48:25.146Z,99974.73
2022-10-22T06:50:58.309Z,99977.46
2022-10-22T06:53:32.201Z,99980.42
2022-10-22T06:56:11.188Z,99981.64
2022-10-22T06:58:45.461Z,99988.95
2022-10-22T07:01:20.722Z,99981.48
2022-10-22T07:03:55.700Z,99983.45
2022-10-22T07:06:31.300Z,99997.80
2022-10-22T07:09:04.857Z,100012.83
2022-10-22T07:11:43.751Z,100024.64
2022-10-22T07:14:17.778Z,100027.27
2022-10-22T07:16:51.556Z,100023.61
2022-10-22T07:19:25.559Z,100028.01
2022-10-22T07:21:59.771Z,100028.62
2022-10-22T07:24:34.032Z,100026.19
2022-10-22T07:27:10.879Z,100025.41
2022-10-22T07:29:45.337Z,100019.02
2022-10-22T07:32:22.851Z,100014.69
2022-10-22T07:34:58.036Z,100009.78
2022-10-22T07:37:31.743Z,100005.94
2022-10-22T07:40:05.922Z,100002.40
2022-10-22T07:42:39.142Z,99999.50
2022-10-22T07:45:14.153Z,100000.09
2022-10-22T07:47:48.733Z,100001.59
2022-10-22T07:50:25.209Z,100004.80
2022-10-22T07:52:58.766Z,100005.61
2022-10-22T07:55:33.022Z,99999.42
2022-10-22T07:58:08.225Z,100009.27
2022-10-22T08:00:41.928Z,100019.06
2022-10-22T08:03:17.357Z,100022.89
2022-10-22T08:05:53.309Z,100019.24
2022-10-22T08:08:29.802Z,100015.25
2022-10-22T08:11:05.211Z,100015.83
2022-10-22T08:13:44.130Z,100015.41
2022-10-22T08:16:19.260Z,100018.70
2022-10-22T08:18:54.335Z,100022.73
2022-10-22T08:21:29.072Z,100028.98
2022-10-22T08:24:02.757Z,100032.48
2022-10-22T08:26:36.323Z,100035.05
2022-10-22T08:29:10.295Z,100034.05
2022-10-22T08:31:44.511Z,100034.86
2022-10-22T08:34:17.973Z,100034.14
2022-10-22T08:36:54.512Z,100031.55
2022-10-22T08:39:28.404Z,100025.08
2022-10-22T08:42:16.871Z,100026.23
2022-10-22T08:44:54.824Z,100017.17
2022-10-22T08:47:50.744Z,100021.66
2022-10-22T08:50:32.776Z,100023.00
2022-10-22T08:53:08.632Z,100025.66
2022-10-22T08:55:43.914Z,100024.48
2022-10-22T08:58:28.474Z,100026.25
2022-10-22T09:01:04.436Z,100032.97
2022-10-22T09:03:47.409Z,100034.00
2022-10-22T09:06:25.301Z,100033.95
2022-10-22T09:09:01.576Z,100042.15
2022-10-22T09:11:40.490Z,100047.45
2022-10-22T09:17:17.923Z,100050.67
2022-10-22T09:19:56.966Z,100048.16
2022-10-22T09:22:41.548Z,100049.41
2022-10-22T09:25:23.939Z,100046.66
2022-10-22T09:28:03.082Z,100043.99
2022-10-22T09:30:40.316Z,100041.83
2022-10-22T09:33:21.491Z,100037.25
2022-10-22T09:36:04.007Z,100031.85
2022-10-22T09:38:44.693Z,100029.00
2022-10-22T09:41:20.309Z,100024.36
2022-10-22T09:43:54.506Z,100016.21
2022-10-22T09:46:31.861Z,100016.30
2022-10-22T09:49:11.987Z,100014.77
2022-10-22T09:52:03.335Z,100019.41
2022-10-22T09:54:44.616Z,100019.68
2022-10-22T09:57:23.254Z,100022.08
2022-10-22T09:59:59.063Z,100019.91
2022-10-22T10:02:38.720Z,100020.98
2022-10-22T10:05:26.721Z,100021.27
2022-10-22T10:08:02.159Z,100027.02
2022-10-22T10:10:48.411Z,100028.68
2022-10-22T10:13:41.356Z,100026.41
2022-10-22T10:16:28.810Z,100021.02
2022-10-22T10:19:16.373Z,100021.65
2022-10-22T10:21:57.663Z,100032.95
2022-10-22T10:24:42.771Z,100035.38
2022-10-22T10:27:22.614Z,100039.61
2022-10-22T10:30:03.610Z,100045.27
2022-10-22T10:32:56.792Z,100047.05
2022-10-22T10:35:38.974Z,100041.33
2022-10-22T10:38:32.061Z,100037.35
2022-10-22T10:41:17.997Z,100040.31
2022-10-22T10:44:12.704Z,100044.23
2022-10-22T10:46:55.943Z,100049.33
2022-10-22T10:49:33.002Z,100053.48
2022-10-22T10:52:18.902Z,100054.42
2022-10-22T10:55:01.638Z,100054.98
2022-10-22T10:57:45.825Z,100058.15
2022-10-22T11:00:21.490Z,100057.23
2022-10-22T11:03:42.905Z,100055.21
2022-10-22T11:06:23.157Z,100051.92
2022-10-22T11:09:03.614Z,100046.06
2022-10-22T11:11:42.877Z,100038.58
2022-10-22T11:14:24.239Z,100030.86
2022-10-22T11:17:06.706Z,100026.05
2022-10-22T11:19:53.777Z,100020.64
2022-10-22T11:22:33.840Z,100018.82
2022-10-22T11:25:17.576Z,100016.68
2022-10-22T11:27:56.656Z,100015.97
2022-10-22T11:30:36.856Z,100017.93
2022-10-22T11:33:16.616Z,100019.83
2022-10-22T11:35:51.716Z,100022.12
2022-10-22T11:38:28.479Z,100022.01
2022-10-22T11:41:07.090Z,100022.94
2022-10-22T11:43:58.340Z,100019.23
2022-10-22T11:46:45.999Z,100015.65
2022-10-22T11:49:28.298Z,100013.60
2022-10-22T11:52:26.213Z,100009.48
2022-10-22T11:55:03.350Z,100011.70
2022-10-22T11:57:44.442Z,100008.56
2022-10-22T12:00:41.673Z,100004.83
2022-10-22T12:03:25.740Z,100000.97
2022-10-22T12:06:22.357Z,100000.08
2022-10-22T12:09:03.898Z,99998.09
2022-10-22T12:11:42.924Z,99993.30
2022-10-22T12:14:27.041Z,99989.92
2022-10-22T12:17:07.167Z,99989.92
2022-10-22T12:19:44.414Z,99991.08
2022-10-22T12:22:23.092Z,99985.29
2022-10-22T12:24:58.845Z,99987.21
2022-10-22T12:27:39.156Z,99988.59
2022-10-22T12:30:24.223Z,99983.17
2022-10-22T12:33:00.704Z,99978.98
2022-10-22T12:35:37.287Z,99981.23
2022-10-22T12:38:17.818Z,99982.70
2022-10-22T12:40:55.131Z,99979.77
2022-10-22T12:43:30.930Z,99983.11
2022-10-22T12:46:05.424Z,99984.71
2022-10-22T12:48:43.771Z,99985.12
2022-10-22T12:51:21.793Z,99978.46
2022-10-22T12:53:57.421Z,99977.65
2022-10-22T12:56:34.848Z,99976.63
2022-10-22T12:59:17.091Z,99978.02
2022-10-22T13:01:53.158Z,99976.77
2022-10-22T13:04:36.576Z,99976.30
2022-10-22T13:07:22.689Z,99986.67
2022-10-22T13:10:03.354Z,99998.95
2022-10-22T13:12:40.513Z,99999.80
2022-10-22T13:15:35.212Z,99999.34
2022-10-22T13:18:20.225Z,100001.45
2022-10-22T13:21:02.261Z,100006.52
2022-10-22T13:23:36.952Z,100008.96
2022-10-22T13:26:18.733Z,100009.95
2022-10-22T13:28:57.006Z,100005.46
2022-10-22T13:31:34.078Z,100003.73
2022-10-22T13:34:17.423Z,100002.91
2022-10-22T13:36:52.418Z,100002.52
2022-10-22T13:39:26.708Z,100000.02
2022-10-22T13:42:03.373Z,99995.92
2022-10-22T13:44:43.961Z,99998.60
2022-10-22T13:47:27.999Z,100002.54
2022-10-22T13:50:03.857Z,99996.14
2022-10-22T13:52:45.935Z,99990.02
2022-10-22T13:55:25.896Z,99986.56
2022-10-22T13:58:03.463Z,99988.64
2022-10-22T14:00:39.444Z,99990.10
2022-10-22T14:03:17.987Z,99989.70
2022-10-22T14:05:51.660Z,99983.48
2022-10-22T14:08:27.037Z,99978.77
2022-10-22T14:11:00.919Z,99975.37
2022-10-22T14:13:34.521Z,99975.16
2022-10-22T14:16:09.720Z,99977.08
2022-10-22T14:18:43.097Z,99979.39
2022-10-22T14:21:17.577Z,99977.53
2022-10-22T14:23:52.129Z,99973.25
2022-10-22T14:26:28.507Z,99972.53
2022-10-22T14:29:09.444Z,99971.52
2022-10-22T14:31:45.792Z,99969.10
2022-10-22T14:34:19.603Z,99965.21
2022-10-22T14:36:54.178Z,99963.07
2022-10-22T14:39:28.382Z,99965.09
2022-10-22T14:42:01.925Z,99970.17
2022-10-22T14:44:36.662Z,99972.27
2022-10-22T14:47:10.317Z,99971.73
2022-10-22T14:49:44.183Z,99972.38
2022-10-22T14:52:18.244Z,99973.60
2022-10-22T14:54:51.778Z,99974.98
2022-10-22T14:57:25.583Z,99981.11
2022-10-22T14:59:59.056Z,99981.00
2022-10-22T15:02:32.242Z,99976.62
2022-10-22T15:05:05.804Z,99975.69
2022-10-22T15:07:40.741Z,99976.02
2022-10-22T15:10:14.605Z,99978.81
2022-10-22T15:12:48.375Z,99982.26
2022-10-22T15:15:23.224Z,99985.54
2022-10-22T15:17:59.040Z,99986.74
2022-10-22T15:20:32.701Z,99985.48
2022-10-22T15:23:05.963Z,99993.55
2022-10-22T15:25:39.522Z,99994.91
2022-10-22T15:28:13.239Z,99994.33
2022-10-22T15:30:47.126Z,99994.23
2022-10-22T15:33:20.886Z,99999.31
2022-10-22T15:35:54.789Z,100001.55
2022-10-22T15:41:10.629Z,99996.74
2022-10-22T15:43:44.316Z,99994.73
2022-10-22T15:46:19.538Z,99994.40
2022-10-22T15:48:54.563Z,99993.14
2022-10-22T15:51:28.509Z,99997.35
2022-10-22T15:54:04.403Z,99996.95
2022-10-22T15:56:40.580Z,99996.58
2022-10-22T15:59:17.496Z,99996.65
2022-10-22T16:01:51.691Z,100001.09
2022-10-22T16:04:25.693Z,100002.23
2022-10-22T16:06:59.612Z,100002.22
2022-10-22T16:09:33.200Z,100007.13
2022-10-22T16:12:07.037Z,100012.98
2022-10-22T16:14:40.127Z,100016.77
2022-10-22T16:17:13.506Z,100017.98
2022-10-22T16:19:47.161Z,100018.98
2022-10-22T16:22:21.725Z,100019.77
2022-10-22T16:24:55.105Z,100016.04
2022-10-22T16:27:28.920Z,100015.17
2022-10-22T16:30:02.298Z,100018.85
2022-10-22T16:32:36.296Z,100020.38
2022-10-22T16:35:11.681Z,100024.81
2022-10-22T16:37:45.500Z,100029.19
2022-10-22T16:40:18.950Z,100032.23
2022-10-22T16:42:52.784Z,100030.33
2022-10-22T16:45:26.706Z,100030.16
2022-10-22T16:48:01.421Z,100030.83
2022-10-22T16:50:35.591Z,100032.02
2022-10-22T16:53:09.045Z,100034.70
2022-10-22T16:55:44.630Z,100040.82
2022-10-22T16:58:18.819Z,100036.83
2022-10-22T17:00:56.517Z,100040.44
2022-10-22T17:03:30.579Z,100042.73
2022-10-22T17:06:05.248Z,100038.35
2022-10-22T17:08:40.668Z,100038.72
2022-10-22T17:11:18.081Z,100039.75
2022-10-22T17:13:54.504Z,100040.30
2022-10-22T17:16:29.857Z,100041.27
2022-10-22T17:19:07.217Z,100039.16
2022-10-22T17:21:41.459Z,100038.06
2022-10-22T17:24:16.456Z,100039.48
2022-10-22T17:26:51.802Z,100039.92
2022-10-22T17:29:26.347Z,100040.48
2022-10-22T17:32:00.304Z,100041.02
2022-10-22T17:34:35.673Z,100045.02
2022-10-22T17:37:10.560Z,100046.17
2022-10-22T17:39:44.461Z,100043.66
2022-10-22T17:42:19.178Z,100043.95
2022-10-22T17:44:53.495Z,100042.64
2022-10-22T17:47:27.622Z,100044.16
2022-10-22T17:50:01.781Z,100042.73
2022-10-22T17:52:37.206Z,100043.69
2022-10-22T17:55:14.223Z,100042.98
2022-10-22T17:57:48.929Z,100044.08
2022-10-22T18:00:24.347Z,100047.52
2022-10-22T18:02:58.345Z,100048.50
2022-10-22T18:05:32.702Z,100046.48
2022-10-22T18:08:07.804Z,100046.63
2022-10-22T18:10:45.055Z,100047.78
2022-10-22T18:13:19.741Z,100049.09
2022-10-22T18:15:59.340Z,100049.39
2022-10-22T18:18:34.187Z,100048.91
2022-10-22T18:21:09.219Z,100050.45
2022-10-22T18:23:44.738Z,100050.73
2022-10-22T18:26:21.570Z,100052.64
2022-10-22T18:28:59.449Z,100052.36
2022-10-22T18:31:37.144Z,100052.33
2022-10-22T18:34:13.261Z,100048.77
2022-10-22T18:36:47.053Z,100048.45
2022-10-22T18:39:22.536Z,100051.28
2022-10-22T18:41:56.272Z,100049.86
2022-10-22T18:44:32.867Z,100048.94
2022-10-22T18:47:09.897Z,100050.20
2022-10-22T18:49:44.707Z,100052.29
2022-10-22T18:52:22.345Z,100052.95
2022-10-22T18:55:14.695Z,100049.23
2022-10-22T18:57:50.738Z,100051.02
2022-10-22T19:00:27.308Z,100053.41
2022-10-22T19:03:02.222Z,100058.35
2022-10-22T19:05:36.555Z,100060.23
2022-10-22T19:08:12.517Z,100062.46
2022-10-22T19:10:47.212Z,100061.05
2022-10-22T19:13:23.617Z,100063.52
2022-10-22T19:16:04.109Z,100060.71
2022-10-22T19:18:39.566Z,100062.85
2022-10-22T19:21:15.040Z,100063.08
2022-10-22T19:23:50.539Z,100059.08
2022-10-22T19:26:27.303Z,100059.95
2022-10-22T19:29:02.019Z,100064.05
2022-10-22T19:31:36.582Z,100067.88
2022-10-22T19:34:11.909Z,100072.94
2022-10-22T19:36:45.599Z,100076.21
2022-10-22T19:39:20.970Z,100075.98
2022-10-22T19:41:55.815Z,100084.41
2022-10-22T19:44:29.900Z,100083.27
2022-10-22T19:47:04.782Z,100088.67
2022-10-22T19:49:38.867Z,100092.12
2022-10-22T19:52:13.058Z,100094.31
2022-10-22T19:54:47.056Z,100095.13
2022-10-22T19:57:21.787Z,100099.45
2022-10-22T19:59:57.461Z,100103.17
2022-10-22T20:02:31.736Z,100105.23
2022-10-22T20:05:05.779Z,100110.27
2022-10-22T20:07:39.683Z,100115.80
2022-10-22T20:10:14.145Z,100117.05
2022-10-22T20:12:48.757Z,100119.90
2022-10-22T20:15:23.352Z,100121.05
2022-10-22T20:17:56.982Z,100126.08
2022-10-22T20:20:31.147Z,100129.98
2022-10-22T20:23:06.188Z,100132.11
2022-10-22T20:25:45.101Z,100134.34
2022-10-22T20:28:19.281Z,100138.08
2022-10-22T20:30:52.671Z,100136.33
2022-10-22T20:33:26.636Z,100141.02
2022-10-22T20:36:03.837Z,100141.20
2022-10-22T20:38:38.009Z,100143.66
2022-10-22T20:41:15.851Z,100142.73
2022-10-22T20:43:50.869Z,100141.69
2022-10-22T20:46:27.547Z,100143.88
2022-10-22T20:49:03.209Z,100146.27
2022-10-22T20:51:39.348Z,100151.04
2022-10-22T20:54:15.750Z,100153.23
2022-10-22T20:56:49.957Z,100152.80
2022-10-22T20:59:23.507Z,100152.08
2022-10-22T21:01:57.291Z,100153.60
2022-10-22T21:04:31.772Z,100152.57
2022-10-22T21:07:05.273Z,100151.52
2022-10-22T21:09:38.435Z,100150.15
2022-10-22T21:12:12.689Z,100146.66
2022-10-22T21:14:47.992Z,100146.44
2022-10-22T21:17:21.507Z,100152.23
2022-10-22T21:19:54.797Z,100153.83
2022-10-22T21:22:28.264Z,100158.25
2022-10-22T21:25:01.569Z,100156.34
2022-10-22T21:27:35.250Z,100160.60
2022-10-22T21:30:10.157Z,100163.83
2022-10-22T21:32:43.778Z,100161.27
2022-10-22T21:35:17.592Z,100162.58
2022-10-22T21:37:51.021Z,100162.73
2022-10-22T21:40:24.556Z,100165.33
2022-10-22T21:42:58.546Z,100167.95
2022-10-22T21:45:32.140Z,100163.02
2022-10-22T21:48:05.341Z,100163.73
2022-10-22T21:50:42.386Z,100160.66
2022-10-22T21:53:15.589Z,100164.15
2022-10-22T21:55:48.944Z,100166.02
2022-10-22T21:58:22.467Z,100169.05
2022-10-22T22:00:59.283Z,100169.48
2022-10-22T22:03:32.789Z,100172.92
2022-10-22T22:06:08.425Z,100175.38
2022-10-22T22:08:41.955Z,100174.45
2022-10-22T22:11:17.215Z,100173.96
2022-10-22T22:13:50.809Z,100173.68
2022-10-22T22:16:28.328Z,100176.75
2022-10-22T22:21:39.538Z,100175.92
2022-10-22T22:24:15.102Z,100177.96
2022-10-22T22:26:49.501Z,100186.37
2022-10-22T22:29:22.907Z,100189.34
2022-10-22T22:31:56.216Z,100188.90
2022-10-22T22:34:30.251Z,100188.95
2022-10-22T22:37:03.693Z,100192.45
2022-10-22T22:39:37.023Z,100195.52
2022-10-22T22:42:10.350Z,100198.98
2022-10-22T22:44:43.746Z,100201.70
2022-10-22T22:47:17.341Z,100206.13
2022-10-22T22:49:50.843Z,100205.00
2022-10-22T22:52:24.175Z,100207.95
2022-10-22T22:54:57.218Z,100208.34
2022-10-22T22:57:30.823Z,100212.81
2022-10-22T23:00:04.136Z,100215.94
2022-10-22T23:02:37.385Z,100215.61
2022-10-22T23:05:11.941Z,100218.35
2022-10-22T23:07:45.048Z,100223.16
2022-10-22T23:10:18.683Z,100223.38
2022-10-22T23:12:53.635Z,100221.74
2022-10-22T23:15:27.238Z,100223.11
2022-10-22T23:18:00.431Z,100225.63
2022-10-22T23:20:33.778Z,100228.85
2022-10-22T23:23:07.547Z,100232.14
2022-10-22T23:25:41.365Z,100234.33
2022-10-22T23:28:15.853Z,100237.17
2022-10-22T23:30:49.382Z,100238.60
2022-10-22T23:33:22.750Z,100237.55
2022-10-22T23:35:56.023Z,100241.67
2022-10-22T23:38:29.777Z,100242.64
2022-10-22T23:41:03.473Z,100241.88
2022-10-22T23:43:38.057Z,100241.83
2022-10-22T23:46:13.378Z,100242.05
2022-10-22T23:48:47.302Z,100244.62
2022-10-22T23:51:21.099Z,100245.70
2022-10-22T23:54:00.379Z,100250.20
2022-10-22T23:56:34.158Z,100249.92
2022-10-22T23:59:08.467Z,100252.23
